Time;durP1;ratioP1;P1;durP2;ratioP2;P2;SDS_P1;SDS_P2;PMS_P1;PMS_P2;Temp;Humidity;BMP_temperature;BMP_pressure;BME280_temperature;BME280_humidity;BME280_pressure;Samples;Min_cycle;Max_cycle;Signal;HPM_P1;HPM_P2
2021/06/23 00:01:16;;;;;;;;;;;19.30;99.90;;;;;;5088150;28;19988;-61
2021/06/23 00:03:41;;;;;;;;;;;19.20;99.90;;;;;;5088501;28;19981;-61
2021/06/23 00:06:07;;;;;;;;;;;19.10;99.90;;;;;;5087917;28;20008;-61
2021/06/23 00:08:34;;;;;;;;;;;19.00;99.90;;;;;;5083204;28;20038;-61
2021/06/23 00:11:00;;;;;;;;;;;19.00;99.90;;;;;;5087911;28;20339;-61
2021/06/23 00:13:27;;;;;;;;;;;19.00;99.90;;;;;;5088134;28;19977;-61
2021/06/23 00:15:53;;;;;;;;;;;19.00;99.90;;;;;;5088178;28;19981;-61
2021/06/23 00:18:19;;;;;;;;;;;19.00;99.90;;;;;;5087951;28;19977;-61
2021/06/23 00:20:44;;;;;;;;;;;19.00;99.90;;;;;;5087827;28;19977;-61
2021/06/23 00:23:10;;;;;;;;;;;19.00;99.90;;;;;;5087711;28;19977;-61
2021/06/23 00:25:35;;;;;;;;;;;18.90;99.90;;;;;;5088144;28;19981;-61
2021/06/23 00:28:01;;;;;;;;;;;19.00;99.90;;;;;;5075457;28;20009;-61
2021/06/23 00:30:27;;;;;;;;;;;19.00;99.90;;;;;;5067267;28;19996;-61
2021/06/23 00:32:54;;;;;;;;;;;19.00;99.90;;;;;;5067785;28;19985;-61
2021/06/23 00:35:21;;;;;;;;;;;18.90;99.90;;;;;;5067081;28;19985;-61
2021/06/23 00:37:47;;;;;;;;;;;18.90;99.90;;;;;;5067411;28;19992;-61
2021/06/23 00:40:13;;;;;;;;;;;18.90;99.90;;;;;;5067177;28;19977;-61
2021/06/23 00:42:40;;;;;;;;;;;18.90;99.90;;;;;;5067014;28;19991;-61
2021/06/23 00:45:07;;;;;;;;;;;18.80;99.90;;;;;;5070151;28;19988;-60
2021/06/23 00:47:32;;;;;;;;;;;18.70;99.90;;;;;;5088081;28;20031;-60
2021/06/23 00:49:58;;;;;;;;;;;18.80;99.90;;;;;;5086407;28;19989;-61
2021/06/23 00:52:25;;;;;;;;;;;18.70;99.90;;;;;;5086709;28;20012;-61
2021/06/23 00:54:51;;;;;;;;;;;18.70;99.90;;;;;;5087421;28;19977;-61
2021/06/23 00:57:17;;;;;;;;;;;18.70;99.90;;;;;;5087205;28;20101;-61
2021/06/23 00:59:43;;;;;;;;;;;18.80;99.90;;;;;;5087384;28;20060;-61
2021/06/23 01:02:09;;;;;;;;;;;18.80;99.90;;;;;;5087086;28;20064;-61
2021/06/23 01:04:35;;;;;;;;;;;18.80;99.90;;;;;;5087130;28;19977;-61
2021/06/23 01:07:01;;;;;;;;;;;18.80;99.90;;;;;;5087037;28;19997;-60
2021/06/23 01:09:27;;;;;;;;;;;18.80;99.90;;;;;;5087232;28;19984;-61
2021/06/23 01:12:12;;;;;;;;;;;18.80;99.90;;;;;;5087145;28;20443;-61
2021/06/23 01:14:40;;;;;;;;;;;18.80;99.90;;;;;;5087333;28;19977;-61
2021/06/23 01:17:07;;;;;;;;;;;18.60;99.90;;;;;;5087084;28;20064;-61
2021/06/23 01:19:36;;;;;;;;;;;18.50;99.90;;;;;;5087651;28;19976;-61
2021/06/23 01:22:02;;;;;;;;;;;18.40;99.90;;;;;;5086533;28;20058;-60
2021/06/23 01:24:27;;;;;;;;;;;18.30;99.90;;;;;;5086295;28;20552;-61
2021/06/23 01:26:53;;;;;;;;;;;18.40;99.90;;;;;;5067863;28;20006;-61
2021/06/23 01:29:18;;;;;;;;;;;18.40;99.90;;;;;;5066690;28;20007;-61
2021/06/23 01:31:44;;;;;;;;;;;18.30;99.90;;;;;;5067020;28;19986;-61
2021/06/23 01:34:11;;;;;;;;;;;18.60;99.90;;;;;;5066330;28;20044;-61
2021/06/23 01:36:36;;;;;;;;;;;18.80;99.90;;;;;;5067126;28;20107;-61
2021/06/23 01:39:02;;;;;;;;;;;18.70;99.90;;;;;;5067169;28;20486;-61
2021/06/23 01:41:28;;;;;;;;;;;18.70;99.90;;;;;;5066484;28;20031;-61
2021/06/23 01:43:53;;;;;;;;;;;18.90;99.90;;;;;;5067023;28;20021;-60
2021/06/23 01:46:19;;;;;;;;;;;18.90;99.90;;;;;;5066541;28;19997;-60
2021/06/23 01:48:44;;;;;;;;;;;18.80;99.90;;;;;;5066243;28;19993;-60
2021/06/23 01:51:10;;;;;;;;;;;18.60;99.90;;;;;;5066253;28;19989;-60
2021/06/23 01:53:37;;;;;;;;;;;18.50;99.90;;;;;;5067966;28;20114;-60
2021/06/23 01:56:06;;;;;;;;;;;18.40;99.90;;;;;;5086997;28;20451;-60
2021/06/23 01:58:40;;;;;;;;;;;18.40;99.90;;;;;;5087790;28;20382;-61
2021/06/23 02:01:14;;;;;;;;;;;18.40;99.90;;;;;;5087163;28;20417;-60
2021/06/23 02:03:57;;;;;;;;;;;18.30;99.90;;;;;;5086255;28;20004;-60
2021/06/23 02:06:25;;;;;;;;;;;18.20;99.90;;;;;;5086389;28;20028;-60
2021/06/23 02:09:01;;;;;;;;;;;18.30;99.90;;;;;;5068942;28;19985;-60
2021/06/23 02:11:39;;;;;;;;;;;18.40;99.90;;;;;;5066526;28;19989;-60
2021/06/23 02:14:23;;;;;;;;;;;18.20;99.90;;;;;;5067343;28;19981;-60
2021/06/23 02:16:49;;;;;;;;;;;18.20;99.90;;;;;;5070208;28;20067;-60
2021/06/23 02:19:15;;;;;;;;;;;18.30;99.90;;;;;;5069713;28;20453;-60
2021/06/23 02:21:41;;;;;;;;;;;18.20;99.90;;;;;;5071844;28;19989;-60
2021/06/23 02:24:07;;;;;;;;;;;18.20;99.90;;;;;;5089944;28;19981;-60
2021/06/23 02:26:33;;;;;;;;;;;18.20;99.90;;;;;;5091021;28;20004;-60
2021/06/23 02:28:59;;;;;;;;;;;18.20;99.90;;;;;;5090242;28;19981;-60
2021/06/23 02:31:27;;;;;;;;;;;18.20;99.90;;;;;;5090098;28;20511;-60
2021/06/23 02:33:53;;;;;;;;;;;18.20;99.90;;;;;;5090266;28;19985;-61
2021/06/23 02:36:20;;;;;;;;;;;18.20;99.90;;;;;;5089842;28;19977;-61
2021/06/23 02:38:46;;;;;;;;;;;18.20;99.90;;;;;;5073462;28;20330;-61
2021/06/23 02:41:13;;;;;;;;;;;18.10;99.90;;;;;;5087763;28;20028;-60
2021/06/23 02:43:39;;;;;;;;;;;18.10;99.90;;;;;;5090097;28;19983;-60
2021/06/23 02:46:04;;;;;;;;;;;18.00;99.90;;;;;;5090113;28;20449;-60
2021/06/23 02:48:30;;;;;;;;;;;18.00;99.90;;;;;;5089683;28;19988;-60
2021/06/23 02:51:01;;;;;;;;;;;18.00;99.90;;;;;;5089599;28;20644;-60
2021/06/23 02:53:28;;;;;;;;;;;18.00;99.90;;;;;;5089134;28;20807;-60
2021/06/23 02:55:54;;;;;;;;;;;17.90;99.90;;;;;;5089660;28;19981;-60
2021/06/23 02:58:20;;;;;;;;;;;18.00;99.90;;;;;;5079343;28;19985;-60
2021/06/23 03:00:46;;;;;;;;;;;18.00;99.90;;;;;;5069371;28;20443;-60
2021/06/23 03:03:11;;;;;;;;;;;17.90;99.90;;;;;;5069038;28;19982;-60
2021/06/23 03:05:37;;;;;;;;;;;17.90;99.90;;;;;;5068753;28;19981;-60
2021/06/23 03:08:03;;;;;;;;;;;17.80;99.90;;;;;;5089582;28;20043;-60
2021/06/23 03:10:28;;;;;;;;;;;17.90;99.90;;;;;;5088521;28;19981;-60
2021/06/23 03:12:54;;;;;;;;;;;17.90;99.90;;;;;;5089537;28;19985;-60
2021/06/23 03:15:19;;;;;;;;;;;17.90;99.90;;;;;;5088811;28;20446;-60
2021/06/23 03:17:45;;;;;;;;;;;17.80;99.90;;;;;;5089045;28;19977;-60
2021/06/23 03:20:11;;;;;;;;;;;17.80;99.90;;;;;;5088825;28;20071;-60
2021/06/23 03:22:36;;;;;;;;;;;17.80;99.90;;;;;;5078260;28;19986;-60
2021/06/23 03:25:03;;;;;;;;;;;17.70;99.90;;;;;;5069371;28;19982;-60
2021/06/23 03:27:28;;;;;;;;;;;17.70;99.90;;;;;;5067750;28;20000;-60
2021/06/23 03:29:54;;;;;;;;;;;17.70;99.90;;;;;;5068843;28;19981;-60
2021/06/23 03:32:20;;;;;;;;;;;17.70;99.90;;;;;;5068553;28;20398;-60
2021/06/23 03:34:45;;;;;;;;;;;17.70;99.90;;;;;;5068503;28;19985;-60
2021/06/23 03:37:12;;;;;;;;;;;17.80;99.90;;;;;;5068537;28;20031;-60
2021/06/23 03:39:39;;;;;;;;;;;17.80;99.90;;;;;;5068814;28;20012;-60
2021/06/23 03:42:05;;;;;;;;;;;17.80;99.90;;;;;;5068807;28;19985;-60
2021/06/23 03:44:31;;;;;;;;;;;17.80;99.90;;;;;;5068678;28;20742;-60
2021/06/23 03:46:56;;;;;;;;;;;17.90;99.90;;;;;;5068212;28;20070;-60
2021/06/23 03:49:22;;;;;;;;;;;17.90;99.90;;;;;;5067909;28;20008;-60
2021/06/23 03:51:48;;;;;;;;;;;17.80;99.90;;;;;;5067971;28;19989;-60
2021/06/23 03:54:13;;;;;;;;;;;17.80;99.90;;;;;;5067226;28;19993;-60
2021/06/23 03:56:39;;;;;;;;;;;17.70;99.90;;;;;;5085452;28;20020;-60
2021/06/23 03:59:06;;;;;;;;;;;17.70;99.90;;;;;;5088802;28;19981;-60
2021/06/23 04:01:31;;;;;;;;;;;17.60;99.90;;;;;;5088974;28;19985;-60
2021/06/23 04:03:58;;;;;;;;;;;17.60;99.90;;;;;;5087603;28;19981;-60
2021/06/23 04:06:23;;;;;;;;;;;17.60;99.90;;;;;;5087246;28;19997;-60
2021/06/23 04:08:49;;;;;;;;;;;17.50;99.90;;;;;;5088514;28;20002;-60
2021/06/23 04:11:15;;;;;;;;;;;17.50;99.90;;;;;;5088023;28;19989;-60
2021/06/23 04:13:40;;;;;;;;;;;17.60;99.90;;;;;;5088180;28;20023;-60
2021/06/23 04:16:06;;;;;;;;;;;17.60;99.90;;;;;;5086950;28;19976;-60
2021/06/23 04:18:32;;;;;;;;;;;17.80;99.90;;;;;;5088212;28;20003;-60
2021/06/23 04:20:57;;;;;;;;;;;17.80;99.90;;;;;;5086306;28;19992;-60
2021/06/23 04:23:23;;;;;;;;;;;17.80;99.90;;;;;;5087179;28;20076;-60
2021/06/23 04:25:48;;;;;;;;;;;17.70;99.90;;;;;;5087900;28;20030;-60
2021/06/23 04:28:14;;;;;;;;;;;17.70;99.90;;;;;;5087797;28;20104;-60
2021/06/23 04:30:40;;;;;;;;;;;17.80;99.90;;;;;;5087858;28;19977;-60
2021/06/23 04:33:05;;;;;;;;;;;17.80;99.90;;;;;;5086322;28;20004;-60
2021/06/23 04:35:31;;;;;;;;;;;17.80;99.90;;;;;;5088418;28;19977;-60
2021/06/23 04:37:57;;;;;;;;;;;17.80;99.90;;;;;;5087382;28;20030;-60
2021/06/23 04:40:23;;;;;;;;;;;17.90;99.90;;;;;;5087752;28;19988;-60
2021/06/23 04:42:49;;;;;;;;;;;17.90;99.90;;;;;;5086224;28;19981;-60
2021/06/23 04:45:14;;;;;;;;;;;17.90;99.90;;;;;;5086020;28;19977;-60
2021/06/23 04:47:40;;;;;;;;;;;18.00;99.90;;;;;;5085233;28;20473;-60
2021/06/23 04:50:06;;;;;;;;;;;18.10;99.90;;;;;;5086226;28;19977;-60
2021/06/23 04:52:32;;;;;;;;;;;18.20;99.90;;;;;;5086236;28;19988;-60
2021/06/23 04:54:58;;;;;;;;;;;18.30;99.90;;;;;;5080528;28;19989;-60
2021/06/23 04:57:24;;;;;;;;;;;18.30;99.90;;;;;;5065283;28;19993;-60
2021/06/23 04:59:51;;;;;;;;;;;18.30;99.90;;;;;;5084060;28;19981;-60
2021/06/23 05:02:17;;;;;;;;;;;18.30;99.90;;;;;;5085481;28;20009;-60
2021/06/23 05:04:43;;;;;;;;;;;18.30;99.90;;;;;;5085648;28;20030;-60
2021/06/23 05:07:08;;;;;;;;;;;18.30;99.90;;;;;;5085535;28;20000;-60
2021/06/23 05:09:38;;;;;;;;;;;18.30;99.90;;;;;;5086680;28;19978;-60
2021/06/23 05:12:04;;;;;;;;;;;18.30;99.90;;;;;;5069575;28;19985;-60
2021/06/23 05:14:29;;;;;;;;;;;18.40;99.90;;;;;;5065305;28;20056;-60
2021/06/23 05:16:55;;;;;;;;;;;18.40;99.90;;;;;;5065071;28;20020;-60
2021/06/23 05:19:21;;;;;;;;;;;18.40;99.90;;;;;;5064754;28;19985;-60
2021/06/23 05:21:46;;;;;;;;;;;18.40;99.90;;;;;;5065726;28;20460;-60
2021/06/23 05:24:12;;;;;;;;;;;18.60;99.90;;;;;;5085582;28;20072;-61
2021/06/23 05:26:38;;;;;;;;;;;18.50;99.90;;;;;;5085232;28;20004;-60
2021/06/23 05:29:04;;;;;;;;;;;18.50;99.90;;;;;;5086549;28;20012;-61
2021/06/23 05:31:29;;;;;;;;;;;18.40;99.90;;;;;;5085421;28;19977;-60
2021/06/23 05:33:56;;;;;;;;;;;18.50;99.90;;;;;;5085360;28;20411;-61
2021/06/23 05:36:21;;;;;;;;;;;18.50;99.90;;;;;;5085192;28;19981;-60
2021/06/23 05:38:47;;;;;;;;;;;18.50;99.90;;;;;;5085483;28;20008;-60
2021/06/23 05:41:13;;;;;;;;;;;18.50;99.90;;;;;;5085516;28;19999;-60
2021/06/23 05:43:38;;;;;;;;;;;18.40;99.90;;;;;;5085155;28;20382;-60
2021/06/23 05:46:05;;;;;;;;;;;18.40;99.90;;;;;;5085612;28;20376;-60
2021/06/23 05:48:31;;;;;;;;;;;18.30;99.90;;;;;;5085717;28;20000;-60
2021/06/23 05:50:57;;;;;;;;;;;18.40;99.90;;;;;;5088970;28;20057;-60
2021/06/23 05:53:24;;;;;;;;;;;18.40;99.90;;;;;;5089222;28;20136;-60
2021/06/23 05:55:49;;;;;;;;;;;18.50;99.90;;;;;;5089050;28;19981;-60
2021/06/23 05:58:15;;;;;;;;;;;18.50;99.90;;;;;;5089158;28;20004;-60
2021/06/23 06:00:40;;;;;;;;;;;18.60;99.90;;;;;;5082586;28;20467;-60
2021/06/23 06:03:07;;;;;;;;;;;18.60;99.90;;;;;;5068431;28;19984;-60
2021/06/23 06:05:33;;;;;;;;;;;18.60;99.90;;;;;;5069005;28;20052;-60
2021/06/23 06:07:59;;;;;;;;;;;18.60;99.90;;;;;;5068727;28;20001;-60
2021/06/23 06:10:24;;;;;;;;;;;18.60;99.90;;;;;;5068899;28;19981;-60
2021/06/23 06:12:51;;;;;;;;;;;18.60;99.90;;;;;;5068375;28;20448;-60
2021/06/23 06:15:17;;;;;;;;;;;18.50;99.90;;;;;;5069126;28;20340;-60
2021/06/23 06:17:42;;;;;;;;;;;18.60;99.90;;;;;;5081111;28;19992;-63
2021/06/23 06:20:08;;;;;;;;;;;18.70;99.90;;;;;;5080863;28;19985;-63
2021/06/23 06:22:34;;;;;;;;;;;18.70;99.90;;;;;;5091195;28;20518;-63
2021/06/23 06:24:59;;;;;;;;;;;18.60;99.90;;;;;;5089740;28;20016;-63
2021/06/23 06:27:25;;;;;;;;;;;18.80;99.90;;;;;;5084200;28;20926;-63
2021/06/23 06:29:51;;;;;;;;;;;18.90;99.90;;;;;;5078205;28;19981;-63
2021/06/23 06:32:17;;;;;;;;;;;19.00;99.90;;;;;;5077403;28;19988;-63
2021/06/23 06:34:42;;;;;;;;;;;18.70;99.90;;;;;;5089573;28;19981;-63
2021/06/23 06:37:08;;;;;;;;;;;18.70;99.90;;;;;;5085048;28;20493;-63
2021/06/23 06:39:33;;;;;;;;;;;18.70;99.90;;;;;;5088043;28;19985;-63
2021/06/23 06:41:59;;;;;;;;;;;18.80;99.90;;;;;;5089808;28;20437;-63
2021/06/23 06:44:29;;;;;;;;;;;18.90;99.90;;;;;;5074599;28;20043;-62
2021/06/23 06:46:55;;;;;;;;;;;19.20;99.90;;;;;;5069144;28;20005;-63
2021/06/23 06:49:21;;;;;;;;;;;19.20;99.90;;;;;;5076377;28;20130;-62
2021/06/23 06:51:47;;;;;;;;;;;19.30;99.90;;;;;;5083198;28;20080;-62
2021/06/23 06:54:13;;;;;;;;;;;19.20;99.90;;;;;;5089779;28;19985;-62
2021/06/23 06:56:39;;;;;;;;;;;19.20;99.90;;;;;;5089268;28;20018;-64
2021/06/23 06:59:05;;;;;;;;;;;19.30;99.90;;;;;;5073813;28;19989;-63
2021/06/23 07:01:30;;;;;;;;;;;19.30;99.90;;;;;;5082861;28;20370;-63
2021/06/23 07:03:56;;;;;;;;;;;19.30;99.90;;;;;;5069107;28;19989;-62
2021/06/23 07:06:22;;;;;;;;;;;19.30;99.90;;;;;;5069112;28;20008;-63
2021/06/23 07:08:47;;;;;;;;;;;19.30;99.90;;;;;;5069066;28;20076;-63
2021/06/23 07:11:13;;;;;;;;;;;19.20;99.90;;;;;;5074517;28;19991;-63
2021/06/23 07:13:38;;;;;;;;;;;19.20;99.90;;;;;;5078307;28;19981;-63
2021/06/23 07:16:04;;;;;;;;;;;19.20;99.90;;;;;;5077570;28;20032;-62
2021/06/23 07:18:31;;;;;;;;;;;19.20;99.90;;;;;;5089153;28;19981;-62
2021/06/23 07:20:56;;;;;;;;;;;19.20;99.90;;;;;;5088933;28;20075;-63
2021/06/23 07:23:22;;;;;;;;;;;19.20;99.90;;;;;;5089054;28;20080;-63
2021/06/23 07:25:48;;;;;;;;;;;19.20;99.90;;;;;;5077716;28;19990;-63
2021/06/23 07:28:16;;;;;;;;;;;19.30;99.90;;;;;;5067798;28;20011;-63
2021/06/23 07:30:45;;;;;;;;;;;19.30;99.90;;;;;;5081921;28;19984;-63
2021/06/23 07:33:11;;;;;;;;;;;19.30;99.90;;;;;;5077176;28;19991;-64
2021/06/23 07:38:22;;;;;;;;;;;19.30;99.90;;;;;;5073015;28;20130;-64
2021/06/23 07:41:03;;;;;;;;;;;19.30;99.90;;;;;;5068806;28;20048;-64
2021/06/23 07:43:29;;;;;;;;;;;19.30;99.90;;;;;;5079346;28;20470;-63
2021/06/23 07:45:58;;;;;;;;;;;19.30;99.90;;;;;;5075532;28;19992;-64
2021/06/23 07:48:27;;;;;;;;;;;19.30;99.90;;;;;;5074937;28;19997;-64
2021/06/23 07:51:13;;;;;;;;;;;19.20;99.90;;;;;;5088208;28;20074;-64
2021/06/23 08:09:39;;;;;;;;;;;19.60;99.90;;;;;;5069538;28;19989;-63
2021/06/23 08:12:28;;;;;;;;;;;19.60;99.90;;;;;;5074667;28;19989;-63
2021/06/23 08:14:50;;;;;;;;;;;19.60;99.90;;;;;;5067409;28;19992;-64
2021/06/23 08:17:16;;;;;;;;;;;19.60;99.90;;;;;;5067431;28;19985;-63
2021/06/23 08:19:42;;;;;;;;;;;19.60;99.90;;;;;;5066673;28;20003;-63
2021/06/23 08:22:11;;;;;;;;;;;19.50;99.90;;;;;;5067256;28;20023;-63
2021/06/23 08:24:40;;;;;;;;;;;19.70;99.90;;;;;;5068360;28;20011;-63
2021/06/23 08:27:06;;;;;;;;;;;19.80;99.90;;;;;;5067860;28;19997;-64
2021/06/23 08:29:32;;;;;;;;;;;20.00;99.90;;;;;;5067488;28;20320;-63
2021/06/23 08:31:57;;;;;;;;;;;20.00;99.90;;;;;;5067597;28;20020;-63
2021/06/23 08:34:25;;;;;;;;;;;20.10;99.90;;;;;;5067965;28;20471;-63
2021/06/23 08:36:51;;;;;;;;;;;20.20;99.90;;;;;;5067688;28;19978;-63
2021/06/23 08:39:16;;;;;;;;;;;20.20;99.90;;;;;;5065673;28;19993;-63
2021/06/23 08:41:43;;;;;;;;;;;19.90;99.90;;;;;;5066253;28;19985;-63
2021/06/23 08:44:08;;;;;;;;;;;19.80;99.90;;;;;;5067226;28;19992;-63
2021/06/23 08:46:36;;;;;;;;;;;20.00;99.90;;;;;;5066980;28;20005;-63
2021/06/23 08:49:04;;;;;;;;;;;20.10;99.90;;;;;;5067037;28;20035;-62
2021/06/23 08:51:30;;;;;;;;;;;20.10;99.90;;;;;;5068965;28;20495;-63
2021/06/23 08:53:56;;;;;;;;;;;20.00;99.90;;;;;;5067322;28;20119;-63
2021/06/23 08:56:23;;;;;;;;;;;20.10;99.90;;;;;;5067196;28;20001;-63
2021/06/23 08:58:48;;;;;;;;;;;20.20;99.90;;;;;;5066816;28;19999;-63
2021/06/23 09:01:14;;;;;;;;;;;20.20;99.90;;;;;;5066776;28;19981;-63
2021/06/23 09:04:20;;;;;;;;;;;20.30;99.90;;;;;;5073571;28;19988;-63
2021/06/23 09:06:53;;;;;;;;;;;20.50;99.90;;;;;;5062895;28;20005;-63
2021/06/23 09:09:21;;;;;;;;;;;20.70;99.90;;;;;;5064617;28;19993;-63
2021/06/23 09:12:07;;;;;;;;;;;20.50;99.90;;;;;;5065160;28;20445;-63
2021/06/23 09:14:34;;;;;;;;;;;20.60;99.90;;;;;;5066228;28;19985;-63
2021/06/23 09:17:14;;;;;;;;;;;20.60;99.90;;;;;;5066099;28;19989;-63
2021/06/23 09:19:42;;;;;;;;;;;20.80;99.90;;;;;;5074430;28;20037;-63
2021/06/23 09:22:26;;;;;;;;;;;20.70;99.90;;;;;;5086481;28;19980;-63
2021/06/23 09:24:52;;;;;;;;;;;20.60;99.90;;;;;;5068872;28;20416;-63
2021/06/23 09:27:19;;;;;;;;;;;20.60;99.90;;;;;;5066731;28;20005;-61
2021/06/23 09:29:45;;;;;;;;;;;20.80;99.90;;;;;;5066272;28;20016;-68
2021/06/23 09:32:10;;;;;;;;;;;20.60;99.90;;;;;;5079930;28;19985;-69
2021/06/23 09:34:45;;;;;;;;;;;20.50;99.90;;;;;;5086723;28;19977;-67
2021/06/23 09:37:30;;;;;;;;;;;20.40;99.90;;;;;;5086645;28;20172;-65
2021/06/23 09:40:13;;;;;;;;;;;20.50;99.90;;;;;;5086379;28;19984;-65
2021/06/23 09:42:41;;;;;;;;;;;20.50;99.90;;;;;;5065057;28;20031;-64
2021/06/23 09:45:07;;;;;;;;;;;20.60;99.90;;;;;;5084784;28;19985;-64
2021/06/23 09:47:35;;;;;;;;;;;20.70;99.90;;;;;;5086557;28;20475;-64
2021/06/23 09:50:00;;;;;;;;;;;20.70;99.90;;;;;;5086842;28;20023;-64
2021/06/23 09:52:26;;;;;;;;;;;21.00;99.90;;;;;;5085998;28;20223;-64
2021/06/23 09:54:53;;;;;;;;;;;21.10;99.90;;;;;;5083303;28;20028;-65
2021/06/23 09:57:20;;;;;;;;;;;21.10;99.90;;;;;;5076143;28;20474;-64
2021/06/23 09:59:53;;;;;;;;;;;21.00;99.90;;;;;;5076888;28;20366;-64
2021/06/23 10:02:29;;;;;;;;;;;21.20;99.90;;;;;;5072956;28;20042;-64
2021/06/23 10:04:55;;;;;;;;;;;21.40;99.90;;;;;;5072440;28;20471;-62
2021/06/23 10:07:36;;;;;;;;;;;21.60;99.90;;;;;;5070282;28;20007;-63
2021/06/23 10:10:02;;;;;;;;;;;21.60;99.90;;;;;;5073696;28;19985;-63
2021/06/23 10:12:28;;;;;;;;;;;21.90;99.90;;;;;;5071951;28;19989;-63
2021/06/23 10:14:54;;;;;;;;;;;21.90;99.90;;;;;;5064888;28;19995;-63
2021/06/23 10:17:22;;;;;;;;;;;22.00;99.90;;;;;;5068356;28;19989;-63
2021/06/23 10:19:48;;;;;;;;;;;21.90;99.90;;;;;;5066146;28;19990;-63
2021/06/23 10:22:14;;;;;;;;;;;22.00;99.90;;;;;;5082543;28;19996;-63
2021/06/23 10:24:40;;;;;;;;;;;21.80;99.90;;;;;;5078543;28;19985;-63
2021/06/23 10:27:08;;;;;;;;;;;21.90;99.90;;;;;;5075821;28;20005;-64
2021/06/23 10:29:35;;;;;;;;;;;21.80;99.90;;;;;;5068144;28;19989;-63
2021/06/23 10:32:01;;;;;;;;;;;21.70;99.90;;;;;;5067649;28;20013;-64
2021/06/23 10:34:27;;;;;;;;;;;21.80;99.90;;;;;;5069675;28;19986;-63
2021/06/23 10:36:52;;;;;;;;;;;21.90;99.90;;;;;;5067304;28;19982;-64
2021/06/23 10:39:20;;;;;;;;;;;22.00;99.90;;;;;;5074810;28;20568;-64
2021/06/23 10:41:56;;;;;;;;;;;22.30;99.90;;;;;;5077438;28;20034;-64
2021/06/23 10:44:23;;;;;;;;;;;22.50;99.90;;;;;;5075242;28;20389;-64
2021/06/23 10:46:50;;;;;;;;;;;22.30;99.90;;;;;;5073844;28;20055;-64
2021/06/23 10:49:36;;;;;;;;;;;22.40;99.90;;;;;;5095265;28;20468;-63
2021/06/23 10:52:34;;;;;;;;;;;22.60;99.90;;;;;;5074342;28;20003;-63
2021/06/23 10:55:01;;;;;;;;;;;22.90;99.90;;;;;;5063288;28;20617;-62
2021/06/23 10:57:31;;;;;;;;;;;23.00;99.90;;;;;;5068831;28;20075;-61
2021/06/23 10:59:58;;;;;;;;;;;22.60;99.90;;;;;;5070557;28;20490;-61
2021/06/23 11:02:51;;;;;;;;;;;22.60;99.90;;;;;;5068699;28;20457;-62
2021/06/23 11:05:18;;;;;;;;;;;22.60;99.90;;;;;;5079614;28;20023;-62
2021/06/23 11:07:45;;;;;;;;;;;22.40;99.90;;;;;;5072084;28;20004;-63
2021/06/23 11:10:13;;;;;;;;;;;22.40;99.90;;;;;;5088681;28;20047;-63
2021/06/23 11:12:46;;;;;;;;;;;22.60;99.90;;;;;;5087218;28;19977;-62
2021/06/23 11:15:16;;;;;;;;;;;22.70;99.90;;;;;;5075550;28;20413;-62
2021/06/23 11:17:45;;;;;;;;;;;23.00;99.90;;;;;;5079395;28;20070;-63
2021/06/23 11:20:20;;;;;;;;;;;23.30;99.90;;;;;;5087317;28;20015;-62
2021/06/23 11:22:46;;;;;;;;;;;23.50;99.90;;;;;;5087069;28;19976;-62
2021/06/23 11:25:23;;;;;;;;;;;23.30;99.90;;;;;;5087107;28;19983;-62
2021/06/23 11:28:07;;;;;;;;;;;22.90;99.90;;;;;;5086557;28;20005;-62
2021/06/23 11:30:34;;;;;;;;;;;22.90;99.90;;;;;;5085980;28;20016;-61
2021/06/23 11:33:18;;;;;;;;;;;22.80;99.90;;;;;;5067465;28;20064;-63
2021/06/23 11:35:44;;;;;;;;;;;22.90;99.90;;;;;;5065929;28;20206;-62
2021/06/23 11:38:11;;;;;;;;;;;23.30;99.90;;;;;;5066649;28;20064;-62
2021/06/23 11:40:36;;;;;;;;;;;23.60;99.90;;;;;;5070336;28;19986;-61
2021/06/23 11:43:03;;;;;;;;;;;23.90;99.90;;;;;;5084189;28;20083;-64
2021/06/23 11:45:29;;;;;;;;;;;24.30;99.90;;;;;;5080127;28;20084;-63
2021/06/23 11:47:55;;;;;;;;;;;24.50;99.90;;;;;;5063765;28;20463;-64
2021/06/23 11:50:22;;;;;;;;;;;24.40;99.90;;;;;;5066372;28;19984;-63
2021/06/23 11:52:47;;;;;;;;;;;24.20;99.90;;;;;;5065717;28;19988;-63
2021/06/23 11:55:13;;;;;;;;;;;24.00;99.90;;;;;;5068045;28;20398;-63
2021/06/23 11:57:39;;;;;;;;;;;24.00;99.90;;;;;;5065605;28;20054;-63
2021/06/23 12:00:05;;;;;;;;;;;24.20;99.90;;;;;;5068006;28;19989;-62
2021/06/23 12:02:32;;;;;;;;;;;24.30;99.90;;;;;;5070062;28;19981;-64
2021/06/23 12:04:57;;;;;;;;;;;24.50;99.90;;;;;;5068503;28;19989;-63
2021/06/23 12:07:23;;;;;;;;;;;24.80;99.90;;;;;;5068956;28;20005;-63
2021/06/23 12:09:48;;;;;;;;;;;24.90;99.90;;;;;;5068505;28;20459;-64
2021/06/23 12:12:15;;;;;;;;;;;24.60;99.90;;;;;;5082918;28;19989;-65
2021/06/23 12:14:40;;;;;;;;;;;24.80;99.90;;;;;;5088330;28;19977;-63
2021/06/23 12:17:06;;;;;;;;;;;24.80;99.90;;;;;;5088608;28;20103;-62
2021/06/23 12:19:31;;;;;;;;;;;25.20;99.90;;;;;;5088646;28;19977;-63
2021/06/23 12:21:57;;;;;;;;;;;25.50;99.90;;;;;;5088450;28;19992;-62
2021/06/23 12:24:22;;;;;;;;;;;25.50;99.90;;;;;;5088513;28;19981;-62
2021/06/23 12:26:49;;;;;;;;;;;25.80;99.90;;;;;;5086055;28;20005;-62
2021/06/23 12:29:14;;;;;;;;;;;25.70;99.90;;;;;;5088535;28;20370;-63
2021/06/23 12:31:41;;;;;;;;;;;25.70;99.90;;;;;;5088052;28;19980;-62
2021/06/23 12:34:09;;;;;;;;;;;25.90;99.90;;;;;;5087150;28;20413;-62
2021/06/23 12:36:35;;;;;;;;;;;26.10;99.90;;;;;;5068043;28;20558;-62
2021/06/23 12:39:01;;;;;;;;;;;26.20;99.90;;;;;;5067958;28;20000;-62
2021/06/23 12:41:26;;;;;;;;;;;26.20;99.90;;;;;;5067701;28;20378;-63
2021/06/23 12:43:53;;;;;;;;;;;26.50;99.90;;;;;;5067342;28;19981;-63
2021/06/23 12:46:18;;;;;;;;;;;26.70;99.90;;;;;;5075026;28;20462;-62
2021/06/23 12:48:45;;;;;;;;;;;26.80;99.90;;;;;;5087500;28;20000;-63
2021/06/23 12:51:10;;;;;;;;;;;27.00;99.90;;;;;;5080991;28;20028;-63
2021/06/23 12:53:36;;;;;;;;;;;27.00;99.90;;;;;;5070328;28;20470;-63
2021/06/23 12:56:03;;;;;;;;;;;27.00;99.90;;;;;;5070389;28;19981;-63
2021/06/23 12:58:28;;;;;;;;;;;27.10;99.90;;;;;;5068105;28;19993;-62
2021/06/23 13:00:54;;;;;;;;;;;27.40;99.90;;;;;;5068386;28;20405;-63
2021/06/23 13:03:20;;;;;;;;;;;27.00;99.90;;;;;;5069432;28;20071;-67
2021/06/23 13:05:46;;;;;;;;;;;26.90;99.90;;;;;;5072105;28;20014;-65
2021/06/23 13:08:11;;;;;;;;;;;26.70;99.90;;;;;;5088218;28;20482;-65
2021/06/23 13:10:37;;;;;;;;;;;26.50;99.90;;;;;;5087710;28;19984;-65
2021/06/23 13:13:03;;;;;;;;;;;26.40;99.90;;;;;;5087552;28;20313;-65
2021/06/23 13:15:28;;;;;;;;;;;26.60;99.90;;;;;;5087682;28;19988;-65
2021/06/23 13:17:54;;;;;;;;;;;26.80;99.90;;;;;;5087519;28;19985;-66
2021/06/23 13:20:21;;;;;;;;;;;26.90;99.90;;;;;;5087680;28;19983;-66
2021/06/23 13:22:47;;;;;;;;;;;27.20;99.90;;;;;;5087937;28;20370;-66
2021/06/23 13:25:13;;;;;;;;;;;27.40;99.90;;;;;;5087853;28;19981;-66
2021/06/23 13:27:39;;;;;;;;;;;27.30;99.90;;;;;;5087343;28;20015;-66
2021/06/23 13:30:06;;;;;;;;;;;27.20;99.90;;;;;;5087574;28;20399;-66
2021/06/23 13:32:32;;;;;;;;;;;26.90;99.90;;;;;;5087490;28;20506;-66
2021/06/23 13:34:58;;;;;;;;;;;26.60;99.90;;;;;;5087604;28;19981;-66
2021/06/23 13:37:23;;;;;;;;;;;26.60;99.90;;;;;;5087674;28;20284;-66
2021/06/23 13:39:49;;;;;;;;;;;26.60;99.90;;;;;;5087384;28;20023;-66
2021/06/23 13:42:14;;;;;;;;;;;26.50;99.90;;;;;;5087051;28;19988;-66
2021/06/23 13:44:40;;;;;;;;;;;26.50;99.90;;;;;;5087251;28;20462;-65
2021/06/23 13:47:05;;;;;;;;;;;26.50;99.90;;;;;;5087263;28;19997;-64
2021/06/23 13:49:31;;;;;;;;;;;26.50;99.90;;;;;;5085442;28;19985;-65
2021/06/23 13:51:57;;;;;;;;;;;26.50;99.90;;;;;;5076063;28;19977;-65
2021/06/23 13:54:22;;;;;;;;;;;26.50;99.90;;;;;;5085601;28;20520;-66
2021/06/23 13:56:49;;;;;;;;;;;26.50;99.90;;;;;;5086442;28;20081;-65
2021/06/23 13:59:15;;;;;;;;;;;26.50;99.90;;;;;;5073964;28;20034;-68
2021/06/23 14:01:40;;;;;;;;;;;26.60;99.90;;;;;;5082742;28;20004;-67
2021/06/23 14:04:07;;;;;;;;;;;26.60;99.90;;;;;;5066480;28;20447;-68
2021/06/23 14:06:32;;;;;;;;;;;26.50;99.90;;;;;;5067492;28;20054;-67
2021/06/23 14:08:58;;;;;;;;;;;26.50;99.90;;;;;;5067581;28;19985;-67
2021/06/23 14:11:23;;;;;;;;;;;26.50;99.90;;;;;;5069815;28;19993;-67
2021/06/23 14:13:50;;;;;;;;;;;26.50;99.90;;;;;;5071638;28;20503;-67
2021/06/23 14:16:16;;;;;;;;;;;26.50;99.90;;;;;;5071476;28;19981;-66
2021/06/23 14:18:41;;;;;;;;;;;26.40;99.90;;;;;;5071616;28;20465;-67
2021/06/23 14:21:07;;;;;;;;;;;26.50;99.90;;;;;;5069773;28;20026;-67
2021/06/23 14:23:33;;;;;;;;;;;26.00;99.90;;;;;;5071247;28;20060;-67
2021/06/23 14:26:00;;;;;;;;;;;26.20;99.90;;;;;;5070530;28;19992;-67
2021/06/23 14:28:26;;;;;;;;;;;26.40;99.90;;;;;;5071052;28;20296;-67
2021/06/23 14:30:52;;;;;;;;;;;26.30;99.90;;;;;;5071007;28;20072;-67
2021/06/23 14:33:18;;;;;;;;;;;26.40;99.90;;;;;;5071104;28;20069;-68
2021/06/23 14:35:44;;;;;;;;;;;26.40;99.90;;;;;;5070586;28;20517;-68